Time;durP1;ratioP1;P1;durP2;ratioP2;P2;SDS_P1;SDS_P2;PMS_P1;PMS_P2;Temp;Humidity;BMP_temperature;BMP_pressure;BME280_temperature;BME280_humidity;BME280_pressure;Samples;Min_cycle;Max_cycle;Signal;HPM_P1;HPM_P2
2023/11/14 00:00:28;;;;;;;29.27;7.18;;;;;;;11.47;100.00;100014.19;4925489;29;20447;-67
2023/11/14 00:03:17;;;;;;;26.50;5.93;;;;;;;11.49;100.00;100009.22;4927093;29;20079;-66
2023/11/14 00:06:05;;;;;;;32.25;7.55;;;;;;;11.51;100.00;99998.03;4913502;29;20412;-67
2023/11/14 00:08:54;;;;;;;29.45;6.55;;;;;;;11.50;100.00;100013.59;4938402;29;20055;-67
2023/11/14 00:11:42;;;;;;;27.85;6.85;;;;;;;11.52;100.00;100019.56;4935660;29;20059;-67
2023/11/14 00:14:30;;;;;;;30.88;7.38;;;;;;;11.54;100.00;100018.44;4922370;29;20393;-65
2023/11/14 00:17:18;;;;;;;26.23;6.53;;;;;;;11.50;100.00;100010.84;4934974;29;20543;-68
2023/11/14 00:20:07;;;;;;;27.52;6.53;;;;;;;11.48;100.00;100025.91;4936397;29;20047;-67
2023/11/14 00:22:56;;;;;;;23.67;5.70;;;;;;;11.47;100.00;100021.53;4946989;28;20044;-67
2023/11/14 00:25:45;;;;;;;27.48;6.13;;;;;;;11.43;100.00;100012.31;4935404;29;20060;-68
2023/11/14 00:28:33;;;;;;;35.97;6.88;;;;;;;11.41;100.00;100020.78;4915820;29;20063;-67
2023/11/14 00:31:21;;;;;;;33.85;7.18;;;;;;;11.42;100.00;100013.41;4919645;29;20046;-68
2023/11/14 00:34:09;;;;;;;31.50;7.50;;;;;;;11.41;100.00;100026.25;4917840;29;20067;-66
2023/11/14 00:36:57;;;;;;;29.10;6.78;;;;;;;11.45;100.00;100015.59;4947092;29;20134;-66
2023/11/14 00:39:46;;;;;;;31.63;7.28;;;;;;;11.45;100.00;100004.66;4935464;29;20043;-67
2023/11/14 00:42:34;;;;;;;32.75;7.65;;;;;;;11.46;100.00;100009.00;4921105;29;20079;-67
2023/11/14 00:45:22;;;;;;;27.83;6.68;;;;;;;11.47;100.00;100007.88;4935659;28;20499;-67
2023/11/14 00:48:10;;;;;;;32.17;7.00;;;;;;;11.45;100.00;99993.75;4935458;29;20062;-68
2023/11/14 00:50:59;;;;;;;26.42;5.82;;;;;;;11.46;100.00;99990.72;4935134;29;20052;-67
2023/11/14 00:53:51;;;;;;;24.77;6.25;;;;;;;11.50;100.00;99993.69;4895328;29;20048;-67
2023/11/14 00:56:39;;;;;;;27.25;6.90;;;;;;;11.47;100.00;99996.97;4918113;29;20572;-66
2023/11/14 00:59:27;;;;;;;32.33;7.15;;;;;;;11.45;100.00;99999.22;4916064;29;20052;-66
2023/11/14 01:02:15;;;;;;;31.77;7.75;;;;;;;11.41;100.00;100007.16;4917652;29;20135;-68
2023/11/14 01:05:03;;;;;;;29.85;6.47;;;;;;;11.40;100.00;100000.09;4933636;29;20054;-67
2023/11/14 01:07:52;;;;;;;30.40;7.95;;;;;;;11.39;100.00;100019.47;4922524;29;20055;-66
2023/11/14 01:10:40;;;;;;;38.70;8.10;;;;;;;11.38;100.00;100015.94;4898378;29;20106;-66
2023/11/14 01:13:28;;;;;;;26.83;6.85;;;;;;;11.40;100.00;100008.28;4925168;29;20409;-67
2023/11/14 01:16:17;;;;;;;28.35;7.38;;;;;;;11.40;100.00;100013.72;4906155;29;20524;-67
2023/11/14 01:19:05;;;;;;;35.22;7.07;;;;;;;11.39;100.00;100017.53;4918906;29;20063;-66
2023/11/14 01:21:53;;;;;;;33.70;8.18;;;;;;;11.40;100.00;100035.56;4936956;28;20051;-68
2023/11/14 01:24:41;;;;;;;31.25;7.18;;;;;;;11.39;100.00;100014.81;4924187;29;20091;-67
2023/11/14 01:27:29;;;;;;;32.60;7.93;;;;;;;11.41;100.00;100037.16;4937789;29;20083;-67
2023/11/14 01:30:17;;;;;;;28.30;6.70;;;;;;;11.40;100.00;100019.19;4951039;29;20157;-67
2023/11/14 01:33:05;;;;;;;30.15;7.22;;;;;;;11.39;100.00;100033.91;4931053;29;20386;-67
2023/11/14 01:35:53;;;;;;;38.53;7.38;;;;;;;11.39;100.00;100039.38;4918553;29;20048;-67
2023/11/14 01:38:41;;;;;;;34.58;7.78;;;;;;;11.40;100.00;100051.06;4920124;29;20520;-67
2023/11/14 01:41:29;;;;;;;28.35;7.20;;;;;;;11.37;100.00;100051.66;4901875;29;20043;-67
2023/11/14 01:44:18;;;;;;;28.10;7.10;;;;;;;11.36;100.00;100045.41;4926016;29;20047;-67
2023/11/14 01:47:08;;;;;;;34.05;7.68;;;;;;;11.33;100.00;100058.81;4912378;29;20051;-67
2023/11/14 01:49:56;;;;;;;26.92;6.38;;;;;;;11.36;100.00;100050.06;4925739;28;20079;-67
2023/11/14 01:52:44;;;;;;;32.05;7.80;;;;;;;11.35;100.00;100059.34;4899641;29;20055;-66
2023/11/14 01:55:32;;;;;;;31.40;7.68;;;;;;;11.34;100.00;100074.88;4923220;29;20142;-67
2023/11/14 01:58:20;;;;;;;23.73;6.43;;;;;;;11.34;100.00;100063.97;4911173;29;20138;-67
2023/11/14 02:01:08;;;;;;;34.13;7.57;;;;;;;11.33;100.00;100056.91;4925359;29;20087;-67
2023/11/14 02:03:57;;;;;;;33.60;7.43;;;;;;;11.30;100.00;100057.47;4924577;28;20126;-67
2023/11/14 02:06:45;;;;;;;24.58;6.32;;;;;;;11.31;100.00;100080.94;4923517;29;20529;-67
2023/11/14 02:09:34;;;;;;;30.77;6.68;;;;;;;11.31;100.00;100097.28;4935494;29;20051;-67
2023/11/14 02:12:22;;;;;;;35.17;7.10;;;;;;;11.33;100.00;100107.91;4879520;29;20108;-67
2023/11/14 02:15:11;;;;;;;35.67;7.20;;;;;;;11.32;100.00;100117.19;4921531;29;20244;-67
2023/11/14 02:17:59;;;;;;;33.88;7.60;;;;;;;11.31;100.00;100119.13;4925579;28;20186;-68
2023/11/14 02:20:47;;;;;;;32.17;6.95;;;;;;;11.30;100.00;100114.75;4910696;29;20148;-67
2023/11/14 02:23:37;;;;;;;31.60;6.25;;;;;;;11.31;100.00;100113.66;4937742;28;20044;-66
2023/11/14 02:26:25;;;;;;;30.58;7.00;;;;;;;11.31;100.00;100105.47;4910446;29;20048;-67
2023/11/14 02:29:15;;;;;;;29.45;6.28;;;;;;;11.33;100.00;100106.00;4910009;29;20123;-66
2023/11/14 02:32:03;;;;;;;28.75;7.00;;;;;;;11.32;100.00;100101.63;4910242;29;20118;-68
2023/11/14 02:34:53;;;;;;;32.03;7.15;;;;;;;11.33;100.00;100100.56;4906300;28;20055;-66
2023/11/14 02:37:41;;;;;;;29.23;6.38;;;;;;;11.34;100.00;100099.44;4931189;29;20184;-67
2023/11/14 02:40:29;;;;;;;27.38;6.07;;;;;;;11.34;100.00;100107.63;4924823;29;20131;-66
2023/11/14 02:43:17;;;;;;;24.63;5.63;;;;;;;11.32;100.00;100109.00;4937722;29;20052;-66
2023/11/14 02:46:05;;;;;;;37.35;8.38;;;;;;;11.33;100.00;100107.91;4923827;28;20090;-66
2023/11/14 02:48:54;;;;;;;26.77;6.05;;;;;;;11.29;100.00;100121.31;4923248;29;20192;-67
2023/11/14 02:51:44;;;;;;;32.30;7.20;;;;;;;11.30;100.00;100120.19;4936793;29;20051;-65
2023/11/14 02:54:33;;;;;;;32.00;7.65;;;;;;;11.29;100.00;100124.03;4918301;29;20420;-66
2023/11/14 02:57:22;;;;;;;30.27;6.80;;;;;;;11.29;100.00;100122.13;4903832;29;20078;-67
2023/11/14 03:00:15;;;;;;;32.58;7.07;;;;;;;11.28;100.00;100134.16;4923673;29;20036;-67
2023/11/14 03:03:04;;;;;;;23.77;6.20;;;;;;;11.27;100.00;100134.41;4947437;29;20511;-66
2023/11/14 03:05:52;;;;;;;32.13;6.60;;;;;;;11.28;100.00;100133.31;4936554;29;20059;-67
2023/11/14 03:08:40;;;;;;;29.77;6.55;;;;;;;11.28;100.00;100130.59;4922398;29;20043;-67
2023/11/14 03:11:30;;;;;;;32.58;7.63;;;;;;;11.30;100.00;100131.09;4935294;29;20047;-68
2023/11/14 03:14:19;;;;;;;28.00;6.57;;;;;;;11.27;100.00;100128.97;4935618;29;20052;-67
2023/11/14 03:17:08;;;;;;;28.35;6.75;;;;;;;11.27;100.00;100134.41;4935993;29;20048;-67
2023/11/14 03:19:56;;;;;;;27.83;5.90;;;;;;;11.25;100.00;100137.44;4940056;29;20039;-66
2023/11/14 03:22:44;;;;;;;27.27;6.55;;;;;;;11.27;100.00;100132.50;4940375;29;20047;-67
2023/11/14 03:25:32;;;;;;;26.98;6.60;;;;;;;11.27;100.00;100139.88;4940163;29;20048;-66
2023/11/14 03:28:21;;;;;;;26.20;7.25;;;;;;;11.26;100.00;100149.19;4936696;29;20048;-67
2023/11/14 03:31:09;;;;;;;31.65;6.68;;;;;;;11.24;100.00;100145.91;4909092;29;20060;-67
2023/11/14 03:33:57;;;;;;;26.10;6.50;;;;;;;11.26;100.00;100138.25;4922772;28;20044;-68
2023/11/14 03:36:45;;;;;;;29.33;7.00;;;;;;;11.24;100.00;100146.72;4915140;29;20048;-66
2023/11/14 03:39:33;;;;;;;28.67;7.10;;;;;;;11.25;100.00;100144.81;4916819;29;20052;-67
2023/11/14 03:42:21;;;;;;;27.25;6.47;;;;;;;11.24;100.00;100151.38;4916464;29;20492;-66
2023/11/14 03:45:10;;;;;;;39.53;7.88;;;;;;;11.24;100.00;100145.91;4920339;29;20512;-66
2023/11/14 03:47:58;;;;;;;29.67;6.60;;;;;;;11.23;100.00;100160.63;4921862;29;20087;-67
2023/11/14 03:50:46;;;;;;;27.00;6.43;;;;;;;11.21;100.00;100160.13;4948145;29;20044;-67
2023/11/14 03:53:35;;;;;;;29.33;7.35;;;;;;;11.18;100.00;100166.16;4934927;29;20047;-66
2023/11/14 03:56:23;;;;;;;33.53;7.75;;;;;;;11.22;100.00;100159.03;4915882;29;20052;-67
2023/11/14 03:59:11;;;;;;;29.55;7.68;;;;;;;11.21;100.00;100157.41;4914634;29;20053;-66
2023/11/14 04:01:59;;;;;;;31.58;7.22;;;;;;;11.21;100.00;100169.13;4888230;29;20056;-67
2023/11/14 04:04:48;;;;;;;28.30;6.15;;;;;;;11.20;100.00;100155.78;4893079;29;20059;-67
2023/11/14 04:07:36;;;;;;;25.23;6.28;;;;;;;11.19;100.00;100170.53;4901133;29;20076;-66
2023/11/14 04:10:24;;;;;;;29.48;7.43;;;;;;;11.18;100.00;100177.06;4909367;29;20079;-65
2023/11/14 04:13:12;;;;;;;28.25;6.45;;;;;;;11.18;100.00;100168.88;4920719;29;20169;-66
2023/11/14 04:16:00;;;;;;;29.55;6.85;;;;;;;11.20;100.00;100166.69;4931727;29;20052;-64
2023/11/14 04:18:48;;;;;;;29.40;6.68;;;;;;;11.18;100.00;100163.41;4920740;28;20073;-61
2023/11/14 04:21:36;;;;;;;30.52;7.25;;;;;;;11.19;100.00;100165.88;4894639;29;20127;-66
2023/11/14 04:24:24;;;;;;;28.45;6.97;;;;;;;11.21;100.00;100160.94;4883016;29;20055;-62
2023/11/14 04:27:12;;;;;;;28.45;6.32;;;;;;;11.21;100.00;100163.66;4918559;29;20048;-64
2023/11/14 04:30:01;;;;;;;30.25;6.55;;;;;;;11.23;100.00;100166.09;4940846;29;20052;-64
2023/11/14 04:32:50;;;;;;;24.45;6.05;;;;;;;11.22;100.00;100156.28;4912939;29;20489;-66
2023/11/14 04:35:39;;;;;;;28.40;6.47;;;;;;;11.21;100.00;100173.78;4917860;29;20139;-66
2023/11/14 04:38:27;;;;;;;35.05;7.82;;;;;;;11.23;100.00;100169.66;4891084;29;20052;-66
2023/11/14 04:41:18;;;;;;;33.10;7.47;;;;;;;11.23;100.00;100168.81;4929985;29;20036;-66
2023/11/14 04:44:06;;;;;;;24.17;5.90;;;;;;;11.24;100.00;100151.38;4916846;29;20143;-67
2023/11/14 04:46:54;;;;;;;30.13;7.70;;;;;;;11.21;100.00;100157.41;4901963;29;20059;-67
2023/11/14 04:49:44;;;;;;;33.95;6.88;;;;;;;11.21;100.00;100157.41;4919990;29;20049;-66
2023/11/14 04:52:33;;;;;;;31.02;7.18;;;;;;;11.19;100.00;100151.44;4919422;29;20060;-67
2023/11/14 04:55:21;;;;;;;27.83;6.13;;;;;;;11.18;100.00;100157.97;4923382;29;20138;-67
2023/11/14 04:58:09;;;;;;;36.05;7.82;;;;;;;11.21;100.00;100158.22;4939059;29;20209;-66
2023/11/14 05:00:57;;;;;;;33.53;7.32;;;;;;;11.19;100.00;100154.16;4951824;29;20044;-66
2023/11/14 05:03:45;;;;;;;32.05;6.57;;;;;;;11.22;100.00;100156.28;4911881;29;20048;-66
2023/11/14 05:06:33;;;;;;;31.48;6.88;;;;;;;11.24;100.00;100162.28;4938651;28;20475;-67
2023/11/14 05:09:21;;;;;;;23.05;5.57;;;;;;;11.24;100.00;100175.91;4926377;29;20052;-66
2023/11/14 05:12:09;;;;;;;31.23;6.30;;;;;;;11.29;100.00;100184.84;4934669;29;20035;-67
2023/11/14 05:14:57;;;;;;;27.73;6.22;;;;;;;11.32;100.00;100169.81;4938188;29;20093;-65
2023/11/14 05:17:45;;;;;;;27.23;7.35;;;;;;;11.31;100.00;100168.22;4923533;29;20102;-67
2023/11/14 05:20:33;;;;;;;35.15;7.70;;;;;;;11.28;100.00;100185.13;4939396;28;20508;-67
2023/11/14 05:23:21;;;;;;;27.85;5.95;;;;;;;11.27;100.00;100180.78;4937597;29;20062;-67
2023/11/14 05:26:09;;;;;;;26.83;6.25;;;;;;;11.25;100.00;100188.44;4937504;29;20422;-66
2023/11/14 05:28:57;;;;;;;37.58;8.18;;;;;;;11.26;100.00;100190.88;4936123;29;20136;-65
2023/11/14 05:31:45;;;;;;;28.73;6.85;;;;;;;11.26;100.00;100203.72;4942584;29;20048;-66
2023/11/14 05:34:33;;;;;;;31.25;7.68;;;;;;;11.26;100.00;100195.53;4938353;29;20036;-66
2023/11/14 05:37:21;;;;;;;35.33;7.65;;;;;;;11.28;100.00;100187.84;4926174;28;20048;-66
2023/11/14 05:40:10;;;;;;;26.55;6.47;;;;;;;11.25;100.00;100191.16;4939111;29;20047;-66
2023/11/14 05:42:59;;;;;;;21.00;5.10;;;;;;;11.28;100.00;100198.75;4950529;29;20194;-66
2023/11/14 05:45:50;;;;;;;32.85;6.78;;;;;;;11.24;100.00;100193.09;4938492;29;20134;-66
2023/11/14 05:48:39;;;;;;;36.53;7.70;;;;;;;11.24;100.00;100198.53;4923253;29;20044;-66
2023/11/14 05:51:27;;;;;;;28.00;7.20;;;;;;;11.28;100.00;100199.59;4937691;29;20051;-66
2023/11/14 05:54:15;;;;;;;28.67;6.13;;;;;;;11.31;100.00;100206.38;4924234;29;20056;-66
2023/11/14 05:57:04;;;;;;;19.60;5.32;;;;;;;11.31;100.00;100200.94;4951067;28;20060;-66
2023/11/14 05:59:55;;;;;;;33.47;7.93;;;;;;;11.31;100.00;100190.03;4938686;28;20541;-66
2023/11/14 06:02:46;;;;;;;27.88;6.35;;;;;;;11.35;100.00;100191.06;4923594;29;20456;-66
2023/11/14 06:05:34;;;;;;;32.20;7.30;;;;;;;11.30;100.00;100204.75;4910216;29;20047;-66
2023/11/14 06:08:22;;;;;;;28.10;6.35;;;;;;;11.29;100.00;100222.22;4939397;29;20044;-66
2023/11/14 06:11:12;;;;;;;29.30;7.22;;;;;;;11.27;100.00;100197.16;4239608;28;10000439;-67
2023/11/14 06:14:03;;;;;;;37.15;7.20;;;;;;;11.21;100.00;100212.75;4920153;29;20417;-68
2023/11/14 06:16:51;;;;;;;40.58;8.07;;;;;;;11.22;100.00;100194.47;4920066;29;20518;-67
2023/11/14 06:19:39;;;;;;;41.08;7.43;;;;;;;11.19;100.00;100204.03;4934255;29;20047;-67
2023/11/14 06:22:28;;;;;;;30.17;6.40;;;;;;;11.17;100.00;100216.34;4934603;29;20047;-67
2023/11/14 06:25:16;;;;;;;31.15;7.22;;;;;;;11.17;100.00;100216.34;4934091;29;20050;-67
2023/11/14 06:28:04;;;;;;;35.08;7.10;;;;;;;11.18;100.00;100223.41;4940018;29;20200;-65
2023/11/14 06:30:52;;;;;;;24.85;5.53;;;;;;;11.18;100.00;100226.13;4935358;29;20707;-65
2023/11/14 06:33:40;;;;;;;22.58;5.88;;;;;;;11.19;100.00;100209.50;4932371;29;20051;-66
2023/11/14 06:36:29;;;;;;;29.50;7.28;;;;;;;11.17;100.00;100225.31;4920712;29;20147;-66
2023/11/14 06:39:17;;;;;;;30.38;6.68;;;;;;;11.22;100.00;100240.84;4934477;29;20051;-66
2023/11/14 06:42:06;;;;;;;35.15;7.43;;;;;;;11.28;100.00;100245.97;4934385;29;20087;-67
2023/11/14 06:44:55;;;;;;;32.35;7.50;;;;;;;11.27;100.00;100238.84;4932774;29;20047;-66
2023/11/14 06:47:44;;;;;;;28.73;7.50;;;;;;;11.22;100.00;100247.09;4920631;29;20052;-67
2023/11/14 06:50:32;;;;;;;36.15;8.18;;;;;;;11.15;100.00;100257.50;4946287;29;20401;-66
2023/11/14 06:53:31;;;;;;;26.83;7.13;;;;;;;11.17;100.00;100257.25;4908942;29;20055;-69
2023/11/14 06:56:20;;;;;;;38.42;7.45;;;;;;;11.16;100.00;100252.88;4934963;29;20063;-67
2023/11/14 06:59:08;;;;;;;34.95;6.75;;;;;;;11.18;100.00;100250.69;4919168;29;20174;-66
2023/11/14 07:01:56;;;;;;;31.10;7.30;;;;;;;11.22;100.00;100246.28;4919526;29;20058;-67
2023/11/14 07:04:44;;;;;;;22.85;6.25;;;;;;;11.21;100.00;100241.94;4933428;29;20074;-66
2023/11/14 07:07:32;;;;;;;30.30;7.18;;;;;;;11.28;100.00;100247.84;4932587;29;20066;-67
2023/11/14 07:10:20;;;;;;;30.73;7.22;;;;;;;11.29;100.00;100231.22;4932888;29;20059;-67
2023/11/14 07:13:09;;;;;;;43.03;8.43;;;;;;;11.26;100.00;100247.34;4906343;29;20616;-66
2023/11/14 07:15:58;;;;;;;31.60;7.72;;;;;;;11.21;100.00;100255.56;4919813;29;20048;-69
2023/11/14 07:18:46;;;;;;;30.75;7.15;;;;;;;11.18;100.00;100256.94;4932499;29;20044;-67
2023/11/14 07:21:35;;;;;;;32.45;7.30;;;;;;;11.20;100.00;100248.47;4945445;29;20083;-66
2023/11/14 07:24:25;;;;;;;34.88;7.68;;;;;;;11.21;100.00;100244.66;4930731;29;20055;-66
2023/11/14 07:27:15;;;;;;;30.60;7.03;;;;;;;11.26;100.00;100253.63;4932426;29;20043;-67
2023/11/14 07:30:04;;;;;;;31.50;7.88;;;;;;;11.21;100.00;100255.56;4931881;29;20056;-66
2023/11/14 07:32:52;;;;;;;38.25;7.60;;;;;;;11.19;100.00;100263.22;4934623;29;20544;-67
2023/11/14 07:35:40;;;;;;;28.45;6.43;;;;;;;11.20;100.00;100270.28;4933619;29;20066;-68
2023/11/14 07:38:29;;;;;;;35.42;7.30;;;;;;;11.21;100.00;100255.56;4949495;29;20075;-67
2023/11/14 07:41:17;;;;;;;32.72;7.53;;;;;;;11.22;100.00;100243.56;4938074;29;20051;-66
2023/11/14 07:44:06;;;;;;;29.95;7.00;;;;;;;11.25;100.00;100243.78;4940459;29;20048;-67
2023/11/14 07:46:54;;;;;;;31.08;6.68;;;;;;;11.28;100.00;100239.66;4920786;29;20246;-67
2023/11/14 07:49:58;;;;;;;29.73;7.55;;;;;;;11.30;100.00;100248.38;4916401;29;20048;-68
2023/11/14 07:52:46;;;;;;;25.83;6.28;;;;;;;11.27;100.00;100244.31;4916608;29;20052;-66
2023/11/14 07:55:35;;;;;;;34.13;7.28;;;;;;;11.28;100.00;100247.84;4927208;29;20551;-67
2023/11/14 07:58:25;;;;;;;34.25;7.72;;;;;;;11.34;100.00;100240.44;4922890;29;20250;-68
2023/11/14 08:01:13;;;;;;;30.17;7.70;;;;;;;11.33;100.00;100247.84;4924059;29;20158;-68
2023/11/14 08:04:05;;;;;;;37.85;8.27;;;;;;;11.39;100.00;100235.75;4922226;29;20095;-66
2023/11/14 08:06:54;;;;;;;37.33;7.63;;;;;;;11.35;100.00;100240.16;4935707;29;20381;-65
2023/11/14 08:09:41;;;;;;;31.77;7.32;;;;;;;11.32;100.00;100257.09;4935186;29;20094;-68
2023/11/14 08:12:29;;;;;;;28.63;6.43;;;;;;;11.32;100.00;100254.38;4936555;29;20051;-67
2023/11/14 08:15:18;;;;;;;33.90;8.90;;;;;;;11.22;100.00;100255.28;4936037;29;20361;-66
2023/11/14 08:18:06;;;;;;;31.67;7.70;;;;;;;11.18;100.00;100251.47;4934515;29;20058;-68
2023/11/14 08:20:54;;;;;;;39.78;8.13;;;;;;;11.18;100.00;100247.94;4922386;29;20424;-68
2023/11/14 08:23:42;;;;;;;29.05;6.57;;;;;;;11.17;100.00;100249.06;4937016;29;20079;-67
2023/11/14 08:26:30;;;;;;;27.33;7.20;;;;;;;11.22;100.00;100254.47;4921855;29;20059;-65
2023/11/14 08:29:19;;;;;;;48.08;10.30;;;;;;;11.31;100.00;100241.84;4936055;29;20062;-66
2023/11/14 08:32:08;;;;;;;37.85;10.55;;;;;;;11.30;100.00;100249.22;4936575;29;20613;-66
2023/11/14 08:34:58;;;;;;;34.47;8.05;;;;;;;11.32;100.00;100239.94;4936396;29;20039;-67
2023/11/14 08:37:48;;;;;;;34.03;7.88;;;;;;;11.40;100.00;100248.31;4937568;29;20079;-65
2023/11/14 08:40:37;;;;;;;34.70;8.00;;;;;;;11.40;100.00;100248.31;4937667;29;20047;-64
2023/11/14 08:43:25;;;;;;;36.10;8.98;;;;;;;11.49;100.00;100237.56;4944148;29;20044;-65
2023/11/14 08:46:14;;;;;;;31.50;7.45;;;;;;;11.54;100.00;100232.06;4937233;29;20044;-67
2023/11/14 08:49:07;;;;;;;37.53;10.13;;;;;;;11.58;100.00;100243.22;4937090;28;20048;-64
2023/11/14 08:51:55;;;;;;;27.70;7.40;;;;;;;11.55;100.00;100241.88;4940248;28;20071;-65
2023/11/14 08:54:43;;;;;;;39.20;9.75;;;;;;;11.55;100.00;100249.25;4941244;29;20099;-64
2023/11/14 08:57:31;;;;;;;34.40;7.38;;;;;;;11.49;100.00;100251.22;4934807;29;20123;-66
2023/11/14 09:00:19;;;;;;;33.10;7.93;;;;;;;11.50;100.00;100240.00;4924219;29;20040;-66
2023/11/14 09:03:07;;;;;;;32.90;7.30;;;;;;;11.55;100.00;100244.59;4927735;29;20048;-66
2023/11/14 09:05:56;;;;;;;37.85;8.68;;;;;;;11.56;100.00;100234.50;4934822;29;20059;-65
2023/11/14 09:08:44;;;;;;;27.73;7.25;;;;;;;11.56;100.00;100239.97;4917587;29;20048;-65
2023/11/14 09:11:32;;;;;;;25.67;6.75;;;;;;;11.55;100.00;100260.16;4936435;29;20080;-66
2023/11/14 09:14:23;;;;;;;31.77;6.68;;;;;;;11.63;100.00;100256.81;4934476;29;20497;-67
2023/11/14 09:17:12;;;;;;;34.72;7.70;;;;;;;11.73;100.00;100262.16;4929701;29;20052;-66
2023/11/14 09:20:00;;;;;;;38.88;9.40;;;;;;;11.82;100.00;100254.94;4917372;29;20052;-66
2023/11/14 09:22:49;;;;;;;31.75;7.70;;;;;;;11.84;100.00;100247.28;4917479;29;20420;-65
2023/11/14 09:25:37;;;;;;;35.15;8.13;;;;;;;11.81;100.00;100261.53;4930687;29;20142;-66
2023/11/14 09:28:25;;;;;;;29.35;7.53;;;;;;;11.79;100.00;100266.47;4934514;29;20040;-65
2023/11/14 09:31:14;;;;;;;33.53;7.68;;;;;;;11.82;100.00;100267.78;4935402;29;20095;-65
2023/11/14 09:34:04;;;;;;;33.55;8.30;;;;;;;11.86;100.00;100266.94;4939362;29;20175;-64
2023/11/14 09:36:52;;;;;;;30.73;7.38;;;;;;;11.83;100.00;100278.41;4935621;29;20062;-66
2023/11/14 09:39:40;;;;;;;33.17;7.13;;;;;;;11.83;100.00;100270.22;4920867;29;20077;-67
2023/11/14 09:42:28;;;;;;;36.10;8.93;;;;;;;11.88;100.00;100272.09;4919871;29;20378;-66
2023/11/14 09:45:24;;;;;;;23.80;6.63;;;;;;;11.86;100.00;100282.50;4933074;29;20043;-65
2023/11/14 09:48:12;;;;;;;30.10;7.18;;;;;;;11.85;100.00;100287.13;4901129;29;20067;-65
2023/11/14 09:51:00;;;;;;;29.90;7.47;;;;;;;11.86;100.00;100272.38;4915626;29;20052;-65
2023/11/14 09:53:49;;;;;;;33.10;7.32;;;;;;;11.89;100.00;100282.75;4923254;29;20056;-65
2023/11/14 09:56:38;;;;;;;34.30;7.32;;;;;;;11.93;100.00;100283.00;4925802;29;20067;-65
2023/11/14 09:59:27;;;;;;;35.13;7.78;;;;;;;11.90;100.00;100289.00;4925165;29;20047;-65
2023/11/14 10:02:15;;;;;;;37.70;8.10;;;;;;;11.83;100.00;100283.84;4899202;29;20079;-66
2023/11/14 10:05:04;;;;;;;30.67;7.70;;;;;;;11.80;100.00;100276.25;4920213;29;20048;-66
2023/11/14 10:08:03;;;;;;;34.60;7.93;;;;;;;11.80;100.00;100287.19;4924762;29;20511;-68
2023/11/14 10:11:11;;;;;;;34.15;7.25;;;;;;;11.82;100.00;100282.25;4923220;29;20060;-67
2023/11/14 10:14:04;;;;;;;35.38;7.20;;;;;;;11.85;100.00;100278.13;4937228;29;20116;-65
2023/11/14 10:16:58;;;;;;;34.75;7.78;;;;;;;11.86;100.00;100282.50;4938182;29;20139;-66
2023/11/14 10:19:57;;;;;;;33.63;7.70;;;;;;;11.94;100.00;100271.75;4938547;28;20047;-65
2023/11/14 10:22:51;;;;;;;35.85;7.50;;;;;;;11.96;100.00;100278.88;4938975;28;20044;-66
2023/11/14 10:25:39;;;;;;;27.58;6.63;;;;;;;11.99;100.00;100279.09;4906033;29;20072;-66
2023/11/14 10:28:27;;;;;;;31.40;6.75;;;;;;;12.00;100.00;100269.81;4919230;29;20498;-66
2023/11/14 10:31:15;;;;;;;26.90;6.60;;;;;;;12.05;100.00;100275.22;4918324;29;20086;-65
2023/11/14 10:34:06;;;;;;;23.98;6.22;;;;;;;12.13;100.00;100268.28;4937847;29;20052;-66
2023/11/14 10:36:59;;;;;;;35.75;7.45;;;;;;;12.11;100.00;100262.28;4925563;29;20420;-67
2023/11/14 10:39:57;;;;;;;33.70;6.47;;;;;;;12.08;100.00;100257.44;4925247;28;20525;-67
2023/11/14 10:42:53;;;;;;;28.15;7.20;;;;;;;12.08;100.00;100260.16;4921005;29;20501;-67
2023/11/14 10:45:43;;;;;;;27.60;7.07;;;;;;;12.09;100.00;100253.56;4951115;28;20044;-65
2023/11/14 10:48:32;;;;;;;29.40;6.63;;;;;;;12.08;100.00;100254.69;4935667;29;20571;-66
2023/11/14 10:51:20;;;;;;;29.45;6.07;;;;;;;12.05;100.00;100250.63;4920873;29;20427;-66
2023/11/14 10:54:09;;;;;;;22.05;5.47;;;;;;;12.06;100.00;100251.44;4903979;29;20063;-66
2023/11/14 10:56:59;;;;;;;26.17;5.85;;;;;;;12.04;100.00;100240.78;4919992;29;20056;-66
2023/11/14 10:59:56;;;;;;;23.98;5.60;;;;;;;12.04;100.00;100240.78;4940298;28;20048;-68
2023/11/14 11:02:45;;;;;;;28.25;6.28;;;;;;;12.05;100.00;100244.34;4938271;29;20052;-66
2023/11/14 11:05:35;;;;;;;23.40;6.30;;;;;;;12.06;100.00;100232.31;4923115;29;20130;-67
2023/11/14 11:08:23;;;;;;;29.38;6.47;;;;;;;12.09;100.00;100237.19;4937054;29;20067;-68
2023/11/14 11:11:11;;;;;;;25.98;6.15;;;;;;;12.08;100.00;100249.22;4931019;29;20048;-66
2023/11/14 11:14:02;;;;;;;26.80;6.15;;;;;;;12.08;100.00;100235.56;4927674;29;20039;-66
2023/11/14 11:16:51;;;;;;;18.48;4.20;;;;;;;12.09;100.00;100223.53;4911315;29;20568;-66
2023/11/14 11:19:40;;;;;;;27.67;6.22;;;;;;;12.10;100.00;100217.00;4923245;29;20410;-66
2023/11/14 11:22:28;;;;;;;26.42;5.60;;;;;;;12.11;100.00;100213.94;4922571;29;20059;-67
2023/11/14 11:25:26;;;;;;;31.40;6.53;;;;;;;12.16;100.00;100215.81;4924923;29;20102;-66
2023/11/14 11:28:27;;;;;;;25.55;6.15;;;;;;;12.18;100.00;100215.53;4921819;29;20493;-66
2023/11/14 11:31:15;;;;;;;23.60;5.60;;;;;;;12.22;100.00;100209.19;4922706;29;20056;-67
2023/11/14 11:34:28;;;;;;;18.90;5.32;;;;;;;12.21;100.00;100213.00;4589772;28;10000376;-66
2023/11/14 11:37:46;;;;;;;26.30;7.18;;;;;;;12.25;100.00;100208.56;4934216;29;20596;-67
2023/11/14 11:40:34;;;;;;;20.60;5.93;;;;;;;12.34;100.00;100209.56;4930851;29;20496;-66
2023/11/14 11:43:25;;;;;;;26.10;6.05;;;;;;;12.31;100.00;100196.50;4906290;29;20052;-66
2023/11/14 11:46:31;;;;;;;21.90;5.70;;;;;;;12.27;100.00;100200.91;4939575;29;20079;-67
2023/11/14 11:49:26;;;;;;;15.80;4.30;;;;;;;12.29;100.00;100200.59;4933381;29;20059;-66
2023/11/14 11:52:16;;;;;;;24.48;5.72;;;;;;;12.28;100.00;100213.44;4907048;29;20048;-66
2023/11/14 11:55:15;;;;;;;19.00;4.95;;;;;;;12.27;100.00;100211.84;4915467;29;20040;-66
2023/11/14 11:58:05;;;;;;;21.58;5.03;;;;;;;12.27;100.00;100209.09;4901361;29;20583;-65
2023/11/14 12:01:07;;;;;;;21.38;4.82;;;;;;;12.29;100.00;100204.16;4908717;29;20047;-67
2023/11/14 12:04:02;;;;;;;24.60;5.05;;;;;;;12.27;100.00;100200.91;4921425;29;20047;-67
2023/11/14 12:06:51;;;;;;;25.15;4.65;;;;;;;12.29;100.00;100198.69;4932176;29;20055;-68
2023/11/14 12:09:39;;;;;;;20.15;4.82;;;;;;;12.29;100.00;100206.06;4937476;29;20110;-68
2023/11/14 12:12:35;;;;;;;17.70;4.30;;;;;;;12.29;100.00;100200.59;4938656;29;20488;-67
2023/11/14 12:15:24;;;;;;;18.13;4.55;;;;;;;12.28;100.00;100196.25;4935400;28;20062;-66
2023/11/14 12:18:12;;;;;;;16.75;4.03;;;;;;;12.29;100.00;100187.78;4932666;29;20194;-65
2023/11/14 12:21:00;;;;;;;17.38;4.28;;;;;;;12.30;100.00;100186.66;4932864;29;20501;-67
2023/11/14 12:23:48;;;;;;;17.83;4.45;;;;;;;12.27;100.00;100198.19;4934364;29;20083;-66
2023/11/14 12:26:36;;;;;;;18.23;4.38;;;;;;;12.26;100.00;100198.47;4892814;29;20047;-66
2023/11/14 12:29:24;;;;;;;20.13;3.75;;;;;;;12.28;100.00;100186.13;4934031;28;20051;-66
2023/11/14 12:32:13;;;;;;;9.98;3.03;;;;;;;12.26;100.00;100182.88;4918748;29;20143;-66
2023/11/14 12:35:01;;;;;;;10.50;3.35;;;;;;;12.25;100.00;100167.59;4931912;29;20054;-67
2023/11/14 12:37:49;;;;;;;13.55;3.58;;;;;;;12.31;100.00;100163.72;4904260;29;20593;-67
2023/11/14 12:40:37;;;;;;;11.90;3.85;;;;;;;12.32;100.00;100154.38;4933877;29;20362;-67
2023/11/14 12:43:25;;;;;;;10.07;3.58;;;;;;;12.31;100.00;100141.03;4905678;29;20048;-67
2023/11/14 12:46:24;;;;;;;15.65;3.20;;;;;;;12.24;100.00;100146.88;4922800;28;20056;-67
2023/11/14 12:49:14;;;;;;;11.50;3.20;;;;;;;12.20;100.00;100150.50;4935507;29;20044;-67